KLRD/LRD METAR and TAF weather

Enter ICAO airport designator
Station Type Date Time Source
KLRD METAR 2022/06/25 22:56 UTC NOAA

KLRD 252256Z 13014G20KT 10SM FEW095 39/16 A2985 RMK AO2 SLP102 T03890161


Station Type Date Time Source
KLRD Decoded METAR 2022/06/25 22:56 UTC NOAA

Laredo, Laredo International Airport, TX, United States (KLRD) 27-32-37N 099-27-41W
Jun 25, 2022 - 06:56 PM EDT / 2022.06.25 2256 UTC
Wind: from the SE (130 degrees) at 16 MPH (14 KT) gusting to 23 MPH (20 KT):0
Visibility: 10 mile(s):0
Sky conditions: mostly clear
Temperature: 102.0 F (38.9 C)
Heat index: 103.3 F (39.6 C):1
Dew Point: 61.0 F (16.1 C)
Relative Humidity: 26%
Pressure (altimeter): 29.85 in. Hg (1010 hPa)
ob: KLRD 252256Z 13014G20KT 10SM FEW095 39/16 A2985 RMK AO2 SLP102 T03890161
cycle: 23

Station Type Date Time Source
KLRD TAF 2022/06/25 18:22 UTC NOAA

TAF KLRD 251720Z 2518/2618 15012KT P6SM FEW250
FM260100 13015G24KT P6SM FEW250
FM260800 12006KT P6SM FEW250

Example: see airport list